sensor_id;sensor_type;location;lat;lon;timestamp;pressure;altitude;pressure_sealevel;temperature;humidity
59545;BME280;45368;55.002;-1.592;2023-05-09T00:00:24;100257.09;;;17.92;51.38
59545;BME280;45368;55.002;-1.592;2023-05-09T00:02:51;100260.15;;;17.40;52.07
59545;BME280;45368;55.002;-1.592;2023-05-09T00:05:19;100258.09;;;17.14;51.99
59545;BME280;45368;55.002;-1.592;2023-05-09T00:07:47;100263.10;;;16.41;53.29
59545;BME280;45368;55.002;-1.592;2023-05-09T00:10:15;100262.99;;;16.00;54.74
59545;BME280;45368;55.002;-1.592;2023-05-09T00:12:42;100258.17;;;15.43;55.69
59545;BME280;45368;55.002;-1.592;2023-05-09T00:15:10;100254.78;;;15.19;56.06
59545;BME280;45368;55.002;-1.592;2023-05-09T00:17:38;100262.26;;;14.58;57.88
59545;BME280;45368;55.002;-1.592;2023-05-09T00:20:07;100262.03;;;14.56;58.15
59545;BME280;45368;55.002;-1.592;2023-05-09T00:22:35;100259.70;;;14.41;59.15
59545;BME280;45368;55.002;-1.592;2023-05-09T00:25:02;100267.11;;;14.17;59.62
59545;BME280;45368;55.002;-1.592;2023-05-09T00:27:30;100272.57;;;14.34;59.48
59545;BME280;45368;55.002;-1.592;2023-05-09T00:29:56;100272.26;;;14.99;58.42
59545;BME280;45368;55.002;-1.592;2023-05-09T00:32:23;100276.12;;;14.32;59.70
59545;BME280;45368;55.002;-1.592;2023-05-09T00:34:51;100274.22;;;14.73;59.23
59545;BME280;45368;55.002;-1.592;2023-05-09T00:37:18;100271.75;;;13.70;61.64
59545;BME280;45368;55.002;-1.592;2023-05-09T00:39:45;100267.83;;;14.37;60.32
59545;BME280;45368;55.002;-1.592;2023-05-09T00:42:12;100262.37;;;14.42;59.62
59545;BME280;45368;55.002;-1.592;2023-05-09T00:44:40;100256.03;;;15.56;57.29
59545;BME280;45368;55.002;-1.592;2023-05-09T00:47:07;100254.54;;;15.49;56.93
59545;BME280;45368;55.002;-1.592;2023-05-09T00:49:34;100243.53;;;15.41;56.11
59545;BME280;45368;55.002;-1.592;2023-05-09T00:52:03;100242.17;;;15.89;55.88
59545;BME280;45368;55.002;-1.592;2023-05-09T00:54:31;100237.61;;;17.10;53.41
59545;BME280;45368;55.002;-1.592;2023-05-09T00:56:58;100236.76;;;17.39;53.30
59545;BME280;45368;55.002;-1.592;2023-05-09T00:59:26;100235.50;;;16.61;54.20
59545;BME280;45368;55.002;-1.592;2023-05-09T01:01:54;100233.46;;;16.88;53.61
59545;BME280;45368;55.002;-1.592;2023-05-09T01:04:25;100235.12;;;16.31;54.78
59545;BME280;45368;55.002;-1.592;2023-05-09T01:07:00;100238.17;;;16.40;54.33
59545;BME280;45368;55.002;-1.592;2023-05-09T01:09:33;100238.09;;;15.94;54.97
59545;BME280;45368;55.002;-1.592;2023-05-09T01:12:25;100233.31;;;16.78;54.04
59545;BME280;45368;55.002;-1.592;2023-05-09T01:15:01;100234.83;;;17.19;52.88
59545;BME280;45368;55.002;-1.592;2023-05-09T01:17:38;100236.52;;;17.42;52.56
59545;BME280;45368;55.002;-1.592;2023-05-09T01:20:13;100228.90;;;17.05;52.97
59545;BME280;45368;55.002;-1.592;2023-05-09T01:22:47;100229.97;;;16.66;53.35
59545;BME280;45368;55.002;-1.592;2023-05-09T01:25:32;100230.40;;;15.72;55.84
59545;BME280;45368;55.002;-1.592;2023-05-09T01:28:10;100226.88;;;16.22;54.67
59545;BME280;45368;55.002;-1.592;2023-05-09T01:30:40;100226.87;;;15.85;54.64
59545;BME280;45368;55.002;-1.592;2023-05-09T01:33:09;100224.74;;;16.21;53.96
59545;BME280;45368;55.002;-1.592;2023-05-09T01:35:40;100222.07;;;15.30;55.92
59545;BME280;45368;55.002;-1.592;2023-05-09T01:38:11;100228.38;;;14.09;58.92
59545;BME280;45368;55.002;-1.592;2023-05-09T01:40:39;100222.63;;;15.28;57.79
59545;BME280;45368;55.002;-1.592;2023-05-09T01:43:09;100230.13;;;14.43;58.96
59545;BME280;45368;55.002;-1.592;2023-05-09T01:45:37;100223.32;;;14.97;57.52
59545;BME280;45368;55.002;-1.592;2023-05-09T01:48:06;100219.64;;;14.55;58.19
59545;BME280;45368;55.002;-1.592;2023-05-09T01:50:35;100218.55;;;14.52;58.24
59545;BME280;45368;55.002;-1.592;2023-05-09T01:53:05;100213.59;;;14.48;59.85
59545;BME280;45368;55.002;-1.592;2023-05-09T01:55:33;100213.14;;;13.68;60.99
59545;BME280;45368;55.002;-1.592;2023-05-09T01:58:03;100210.31;;;14.20;60.11
59545;BME280;45368;55.002;-1.592;2023-05-09T02:00:31;100207.52;;;14.35;59.75
59545;BME280;45368;55.002;-1.592;2023-05-09T02:03:00;100203.78;;;14.05;60.78
59545;BME280;45368;55.002;-1.592;2023-05-09T02:05:28;100196.51;;;14.09;60.95
59545;BME280;45368;55.002;-1.592;2023-05-09T02:07:57;100190.19;;;13.82;61.29
59545;BME280;45368;55.002;-1.592;2023-05-09T02:10:26;100188.45;;;13.73;61.35
59545;BME280;45368;55.002;-1.592;2023-05-09T02:12:54;100181.61;;;13.73;61.26
59545;BME280;45368;55.002;-1.592;2023-05-09T02:15:28;100182.07;;;13.39;62.22
59545;BME280;45368;55.002;-1.592;2023-05-09T02:17:55;100181.68;;;13.43;63.06
59545;BME280;45368;55.002;-1.592;2023-05-09T02:20:22;100177.20;;;13.46;62.49
59545;BME280;45368;55.002;-1.592;2023-05-09T02:22:50;100181.28;;;13.04;63.78
59545;BME280;45368;55.002;-1.592;2023-05-09T02:25:17;100182.48;;;13.12;64.17
59545;BME280;45368;55.002;-1.592;2023-05-09T02:27:45;100184.49;;;13.26;63.62
59545;BME280;45368;55.002;-1.592;2023-05-09T02:30:17;100184.79;;;13.93;62.72
59545;BME280;45368;55.002;-1.592;2023-05-09T02:32:47;100181.15;;;13.27;63.50
59545;BME280;45368;55.002;-1.592;2023-05-09T02:35:16;100180.15;;;13.01;64.02
59545;BME280;45368;55.002;-1.592;2023-05-09T02:37:44;100175.15;;;13.19;63.68
59545;BME280;45368;55.002;-1.592;2023-05-09T02:40:12;100172.52;;;13.42;62.76
59545;BME280;45368;55.002;-1.592;2023-05-09T02:42:40;100173.32;;;12.98;63.95
59545;BME280;45368;55.002;-1.592;2023-05-09T02:45:08;100171.18;;;13.02;64.37
59545;BME280;45368;55.002;-1.592;2023-05-09T02:47:35;100166.69;;;13.21;63.91
59545;BME280;45368;55.002;-1.592;2023-05-09T02:50:03;100163.79;;;13.58;62.79
59545;BME280;45368;55.002;-1.592;2023-05-09T02:52:31;100155.88;;;13.71;62.49
59545;BME280;45368;55.002;-1.592;2023-05-09T02:54:58;100150.83;;;13.55;62.45
59545;BME280;45368;55.002;-1.592;2023-05-09T02:57:25;100147.06;;;13.98;61.99
59545;BME280;45368;55.002;-1.592;2023-05-09T02:59:52;100148.12;;;13.62;62.30
59545;BME280;45368;55.002;-1.592;2023-05-09T03:02:19;100152.83;;;13.64;62.55
59545;BME280;45368;55.002;-1.592;2023-05-09T03:04:46;100153.28;;;13.78;61.79
59545;BME280;45368;55.002;-1.592;2023-05-09T03:07:13;100155.23;;;13.39;63.46
59545;BME280;45368;55.002;-1.592;2023-05-09T03:09:39;100153.19;;;13.90;62.27
59545;BME280;45368;55.002;-1.592;2023-05-09T03:12:06;100158.35;;;14.37;61.02
59545;BME280;45368;55.002;-1.592;2023-05-09T03:14:34;100153.32;;;14.42;60.70
59545;BME280;45368;55.002;-1.592;2023-05-09T03:17:02;100159.91;;;14.29;61.27
59545;BME280;45368;55.002;-1.592;2023-05-09T03:19:28;100153.30;;;14.34;60.57
59545;BME280;45368;55.002;-1.592;2023-05-09T03:21:55;100156.27;;;13.99;61.83
59545;BME280;45368;55.002;-1.592;2023-05-09T03:24:24;100158.58;;;14.08;61.40
59545;BME280;45368;55.002;-1.592;2023-05-09T03:26:51;100159.69;;;13.20;62.82
59545;BME280;45368;55.002;-1.592;2023-05-09T03:29:18;100151.65;;;14.36;60.28
59545;BME280;45368;55.002;-1.592;2023-05-09T03:31:45;100143.75;;;15.65;57.50
59545;BME280;45368;55.002;-1.592;2023-05-09T03:34:12;100144.89;;;15.99;56.15
59545;BME280;45368;55.002;-1.592;2023-05-09T03:36:40;100146.79;;;15.72;56.35
59545;BME280;45368;55.002;-1.592;2023-05-09T03:39:07;100147.88;;;15.59;56.22
59545;BME280;45368;55.002;-1.592;2023-05-09T03:41:34;100148.48;;;15.00;57.89
59545;BME280;45368;55.002;-1.592;2023-05-09T03:44:02;100153.21;;;14.46;58.98
59545;BME280;45368;55.002;-1.592;2023-05-09T03:46:29;100143.58;;;16.02;55.96
59545;BME280;45368;55.002;-1.592;2023-05-09T03:48:56;100141.25;;;16.29;55.28
59545;BME280;45368;55.002;-1.592;2023-05-09T03:51:23;100141.83;;;15.99;55.15
59545;BME280;45368;55.002;-1.592;2023-05-09T03:53:51;100136.67;;;15.72;55.67
59545;BME280;45368;55.002;-1.592;2023-05-09T03:56:17;100138.50;;;16.08;54.98
59545;BME280;45368;55.002;-1.592;2023-05-09T03:58:44;100133.55;;;16.78;53.84
59545;BME280;45368;55.002;-1.592;2023-05-09T04:01:11;100139.16;;;16.42;54.07
59545;BME280;45368;55.002;-1.592;2023-05-09T04:03:38;100136.42;;;16.77;53.18
59545;BME280;45368;55.002;-1.592;2023-05-09T04:06:05;100138.07;;;16.87;52.36
59545;BME280;45368;55.002;-1.592;2023-05-09T04:08:33;100143.44;;;16.83;53.28
59545;BME280;45368;55.002;-1.592;2023-05-09T04:11:00;100140.70;;;16.97;52.55
59545;BME280;45368;55.002;-1.592;2023-05-09T04:13:28;100141.25;;;17.36;52.11
59545;BME280;45368;55.002;-1.592;2023-05-09T04:15:56;100144.36;;;16.23;53.67
59545;BME280;45368;55.002;-1.592;2023-05-09T04:18:23;100142.07;;;15.80;54.81
59545;BME280;45368;55.002;-1.592;2023-05-09T04:20:50;100140.14;;;15.72;55.16
59545;BME280;45368;55.002;-1.592;2023-05-09T04:23:17;100137.89;;;16.09;54.31
59545;BME280;45368;55.002;-1.592;2023-05-09T04:25:44;100145.79;;;14.94;56.83
59545;BME280;45368;55.002;-1.592;2023-05-09T04:28:11;100147.44;;;15.18;57.05
59545;BME280;45368;55.002;-1.592;2023-05-09T04:30:38;100152.99;;;14.37;59.11
59545;BME280;45368;55.002;-1.592;2023-05-09T04:33:05;100146.06;;;14.96;57.63
59545;BME280;45368;55.002;-1.592;2023-05-09T04:35:32;100143.51;;;15.86;55.87
59545;BME280;45368;55.002;-1.592;2023-05-09T04:37:59;100142.21;;;15.86;55.64
59545;BME280;45368;55.002;-1.592;2023-05-09T04:40:25;100143.64;;;16.04;55.47
59545;BME280;45368;55.002;-1.592;2023-05-09T04:42:52;100143.47;;;15.92;55.30
59545;BME280;45368;55.002;-1.592;2023-05-09T04:45:19;100147.03;;;15.65;55.87
59545;BME280;45368;55.002;-1.592;2023-05-09T04:47:46;100143.24;;;15.71;56.09
59545;BME280;45368;55.002;-1.592;2023-05-09T04:50:13;100143.61;;;15.64;55.64
59545;BME280;45368;55.002;-1.592;2023-05-09T04:52:40;100140.74;;;15.58;56.42
59545;BME280;45368;55.002;-1.592;2023-05-09T04:55:07;100146.11;;;15.11;57.74
59545;BME280;45368;55.002;-1.592;2023-05-09T04:57:34;100139.61;;;15.74;56.83
59545;BME280;45368;55.002;-1.592;2023-05-09T05:00:01;100144.89;;;15.09;58.20
59545;BME280;45368;55.002;-1.592;2023-05-09T05:02:29;100146.04;;;13.91;60.35
59545;BME280;45368;55.002;-1.592;2023-05-09T05:04:56;100147.90;;;14.60;58.92
59545;BME280;45368;55.002;-1.592;2023-05-09T05:07:23;100142.08;;;15.13;57.73
59545;BME280;45368;55.002;-1.592;2023-05-09T05:09:50;100141.37;;;14.87;57.84
59545;BME280;45368;55.002;-1.592;2023-05-09T05:12:17;100143.43;;;15.83;56.40
59545;BME280;45368;55.002;-1.592;2023-05-09T05:14:45;100140.34;;;15.83;56.12
59545;BME280;45368;55.002;-1.592;2023-05-09T05:17:12;100140.75;;;15.61;56.32
59545;BME280;45368;55.002;-1.592;2023-05-09T05:19:40;100134.74;;;15.71;56.00
59545;BME280;45368;55.002;-1.592;2023-05-09T05:22:07;100126.91;;;15.84;55.84
59545;BME280;45368;55.002;-1.592;2023-05-09T05:24:34;100122.32;;;16.03;55.23
59545;BME280;45368;55.002;-1.592;2023-05-09T05:27:00;100121.12;;;16.59;54.41
59545;BME280;45368;55.002;-1.592;2023-05-09T05:29:27;100123.93;;;15.92;55.53
59545;BME280;45368;55.002;-1.592;2023-05-09T05:31:54;100128.54;;;15.41;57.57
59545;BME280;45368;55.002;-1.592;2023-05-09T05:34:25;100130.00;;;15.67;56.56
59545;BME280;45368;55.002;-1.592;2023-05-09T05:36:52;100131.15;;;15.45;56.94
59545;BME280;45368;55.002;-1.592;2023-05-09T05:39:19;100130.78;;;15.96;56.31
59545;BME280;45368;55.002;-1.592;2023-05-09T05:41:46;100129.46;;;15.74;56.56
59545;BME280;45368;55.002;-1.592;2023-05-09T05:44:12;100124.88;;;16.77;54.85
59545;BME280;45368;55.002;-1.592;2023-05-09T05:46:40;100124.69;;;16.71;54.54
59545;BME280;45368;55.002;-1.592;2023-05-09T05:49:07;100130.06;;;16.40;54.94
59545;BME280;45368;55.002;-1.592;2023-05-09T05:51:34;100135.78;;;15.16;57.34
59545;BME280;45368;55.002;-1.592;2023-05-09T05:54:00;100133.95;;;15.11;58.27
59545;BME280;45368;55.002;-1.592;2023-05-09T05:56:28;100130.56;;;15.85;57.04
59545;BME280;45368;55.002;-1.592;2023-05-09T05:58:56;100124.45;;;16.91;54.91
59545;BME280;45368;55.002;-1.592;2023-05-09T06:01:23;100122.37;;;16.82;53.91
59545;BME280;45368;55.002;-1.592;2023-05-09T06:03:49;100122.96;;;16.97;53.95
59545;BME280;45368;55.002;-1.592;2023-05-09T06:06:16;100127.98;;;16.33;54.78
59545;BME280;45368;55.002;-1.592;2023-05-09T06:08:44;100126.88;;;17.02;53.41
59545;BME280;45368;55.002;-1.592;2023-05-09T06:11:11;100126.83;;;17.19;53.00
59545;BME280;45368;55.002;-1.592;2023-05-09T06:13:37;100131.10;;;16.84;54.55
59545;BME280;45368;55.002;-1.592;2023-05-09T06:16:05;100127.76;;;16.96;54.05
59545;BME280;45368;55.002;-1.592;2023-05-09T06:18:33;100132.22;;;15.60;56.49
59545;BME280;45368;55.002;-1.592;2023-05-09T06:21:00;100137.38;;;15.43;56.73
59545;BME280;45368;55.002;-1.592;2023-05-09T06:23:27;100136.23;;;15.37;57.71
59545;BME280;45368;55.002;-1.592;2023-05-09T06:25:54;100138.01;;;15.13;57.46
59545;BME280;45368;55.002;-1.592;2023-05-09T06:28:27;100137.00;;;15.04;58.76
59545;BME280;45368;55.002;-1.592;2023-05-09T06:30:55;100131.85;;;15.12;58.45
59545;BME280;45368;55.002;-1.592;2023-05-09T06:33:23;100131.05;;;15.10;58.22
59545;BME280;45368;55.002;-1.592;2023-05-09T06:35:50;100133.28;;;13.99;60.47
59545;BME280;45368;55.002;-1.592;2023-05-09T06:38:17;100128.46;;;14.44;59.62
59545;BME280;45368;55.002;-1.592;2023-05-09T06:40:44;100131.13;;;14.61;59.40
59545;BME280;45368;55.002;-1.592;2023-05-09T06:43:10;100130.65;;;13.87;61.39
59545;BME280;45368;55.002;-1.592;2023-05-09T06:45:37;100131.00;;;13.23;62.70
59545;BME280;45368;55.002;-1.592;2023-05-09T06:48:04;100128.83;;;13.56;62.16
59545;BME280;45368;55.002;-1.592;2023-05-09T06:50:32;100128.52;;;14.13;60.49
59545;BME280;45368;55.002;-1.592;2023-05-09T06:52:59;100126.90;;;13.55;61.43
59545;BME280;45368;55.002;-1.592;2023-05-09T06:55:27;100128.66;;;13.35;62.99
59545;BME280;45368;55.002;-1.592;2023-05-09T06:57:55;100124.49;;;13.70;61.95
59545;BME280;45368;55.002;-1.592;2023-05-09T07:00:22;100126.40;;;13.99;60.79
59545;BME280;45368;55.002;-1.592;2023-05-09T07:02:50;100124.11;;;14.32;59.61
59545;BME280;45368;55.002;-1.592;2023-05-09T07:05:18;100124.87;;;13.81;61.06
59545;BME280;45368;55.002;-1.592;2023-05-09T07:07:45;100124.41;;;14.45;59.73
59545;BME280;45368;55.002;-1.592;2023-05-09T07:10:13;100130.82;;;12.91;63.79
59545;BME280;45368;55.002;-1.592;2023-05-09T07:12:41;100125.03;;;14.22;60.58
59545;BME280;45368;55.002;-1.592;2023-05-09T07:15:09;100123.55;;;14.67;60.09
59545;BME280;45368;55.002;-1.592;2023-05-09T07:17:36;100124.41;;;14.08;59.51
59545;BME280;45368;55.002;-1.592;2023-05-09T07:20:05;100124.93;;;14.39;60.06
59545;BME280;45368;55.002;-1.592;2023-05-09T07:22:32;100121.61;;;15.26;57.45
59545;BME280;45368;55.002;-1.592;2023-05-09T07:24:59;100121.01;;;15.56;57.42
59545;BME280;45368;55.002;-1.592;2023-05-09T07:27:27;100119.88;;;15.30;57.80
59545;BME280;45368;55.002;-1.592;2023-05-09T07:29:54;100119.34;;;14.69;57.93
59545;BME280;45368;55.002;-1.592;2023-05-09T07:32:23;100121.48;;;14.88;58.13
59545;BME280;45368;55.002;-1.592;2023-05-09T07:34:50;100126.78;;;14.75;59.28
59545;BME280;45368;55.002;-1.592;2023-05-09T07:37:17;100126.51;;;12.66;62.65
59545;BME280;45368;55.002;-1.592;2023-05-09T07:39:45;100126.21;;;13.81;60.50
59545;BME280;45368;55.002;-1.592;2023-05-09T07:42:12;100125.77;;;13.71;59.82
59545;BME280;45368;55.002;-1.592;2023-05-09T07:44:39;100124.18;;;14.48;58.67
59545;BME280;45368;55.002;-1.592;2023-05-09T07:47:06;100124.55;;;13.16;62.14
59545;BME280;45368;55.002;-1.592;2023-05-09T07:49:33;100128.98;;;13.70;61.75
59545;BME280;45368;55.002;-1.592;2023-05-09T07:52:01;100131.55;;;13.72;61.41
59545;BME280;45368;55.002;-1.592;2023-05-09T07:54:28;100129.44;;;13.15;63.68
59545;BME280;45368;55.002;-1.592;2023-05-09T07:56:56;100125.79;;;13.26;62.84
59545;BME280;45368;55.002;-1.592;2023-05-09T07:59:23;100121.08;;;13.77;61.95
59545;BME280;45368;55.002;-1.592;2023-05-09T08:01:50;100120.54;;;13.75;60.64
59545;BME280;45368;55.002;-1.592;2023-05-09T08:04:17;100124.22;;;13.88;60.19
59545;BME280;45368;55.002;-1.592;2023-05-09T08:06:45;100126.99;;;13.82;61.52
59545;BME280;45368;55.002;-1.592;2023-05-09T08:09:12;100125.31;;;13.33;62.16
59545;BME280;45368;55.002;-1.592;2023-05-09T08:11:38;100123.03;;;13.17;62.71
59545;BME280;45368;55.002;-1.592;2023-05-09T08:14:05;100125.22;;;13.36;61.87
59545;BME280;45368;55.002;-1.592;2023-05-09T08:16:32;100122.51;;;13.47;61.34
59545;BME280;45368;55.002;-1.592;2023-05-09T08:18:59;100119.43;;;14.22;60.14
59545;BME280;45368;55.002;-1.592;2023-05-09T08:21:26;100119.71;;;14.50;59.03
59545;BME280;45368;55.002;-1.592;2023-05-09T08:23:53;100115.91;;;14.37;59.79
59545;BME280;45368;55.002;-1.592;2023-05-09T08:26:26;100109.17;;;15.53;56.56
59545;BME280;45368;55.002;-1.592;2023-05-09T08:28:54;100107.75;;;16.58;53.32
59545;BME280;45368;55.002;-1.592;2023-05-09T08:31:22;100110.82;;;18.04;49.96
59545;BME280;45368;55.002;-1.592;2023-05-09T08:33:49;100108.88;;;18.11;49.02
59545;BME280;45368;55.002;-1.592;2023-05-09T08:36:17;100109.15;;;19.76;46.99
59545;BME280;45368;55.002;-1.592;2023-05-09T08:38:44;100113.78;;;18.98;46.00
59545;BME280;45368;55.002;-1.592;2023-05-09T08:41:12;100120.01;;;17.96;49.14
59545;BME280;45368;55.002;-1.592;2023-05-09T08:43:40;100120.05;;;17.69;48.94
59545;BME280;45368;55.002;-1.592;2023-05-09T08:46:09;100123.02;;;16.23;50.98
59545;BME280;45368;55.002;-1.592;2023-05-09T08:48:37;100124.05;;;16.52;52.03
59545;BME280;45368;55.002;-1.592;2023-05-09T08:51:05;100119.65;;;18.05;48.83
59545;BME280;45368;55.002;-1.592;2023-05-09T08:53:33;100119.79;;;17.79;48.81
59545;BME280;45368;55.002;-1.592;2023-05-09T08:56:02;100123.64;;;18.08;49.38
59545;BME280;45368;55.002;-1.592;2023-05-09T08:58:30;100129.15;;;17.28;50.57
59545;BME280;45368;55.002;-1.592;2023-05-09T09:00:58;100132.52;;;16.38;52.88
59545;BME280;45368;55.002;-1.592;2023-05-09T09:03:26;100135.63;;;16.15;53.75
59545;BME280;45368;55.002;-1.592;2023-05-09T09:05:54;100137.93;;;16.55;52.51
59545;BME280;45368;55.002;-1.592;2023-05-09T09:08:26;100138.02;;;15.96;51.78
59545;BME280;45368;55.002;-1.592;2023-05-09T09:10:55;100132.37;;;17.30;50.76
59545;BME280;45368;55.002;-1.592;2023-05-09T09:13:27;100137.47;;;16.81;51.20
59545;BME280;45368;55.002;-1.592;2023-05-09T09:15:54;100138.11;;;16.90;51.29
59545;BME280;45368;55.002;-1.592;2023-05-09T09:18:28;100143.38;;;15.28;54.75
59545;BME280;45368;55.002;-1.592;2023-05-09T09:20:58;100143.01;;;15.89;54.11
59545;BME280;45368;55.002;-1.592;2023-05-09T09:23:28;100144.04;;;16.05;52.91
59545;BME280;45368;55.002;-1.592;2023-05-09T09:25:57;100142.06;;;15.17;54.99
59545;BME280;45368;55.002;-1.592;2023-05-09T09:28:25;100138.98;;;15.97;53.88
59545;BME280;45368;55.002;-1.592;2023-05-09T09:30:52;100133.62;;;16.28;53.41
59545;BME280;45368;55.002;-1.592;2023-05-09T09:33:21;100135.98;;;16.65;52.80
59545;BME280;45368;55.002;-1.592;2023-05-09T09:35:49;100134.21;;;16.45;52.24
59545;BME280;45368;55.002;-1.592;2023-05-09T09:38:16;100135.50;;;16.15;52.58
59545;BME280;45368;55.002;-1.592;2023-05-09T09:40:59;100134.95;;;16.06;53.19
59545;BME280;45368;55.002;-1.592;2023-05-09T09:43:28;100130.15;;;16.04;54.00
59545;BME280;45368;55.002;-1.592;2023-05-09T09:45:55;100129.03;;;15.59;54.10
59545;BME280;45368;55.002;-1.592;2023-05-09T09:48:30;100132.73;;;16.18;52.67
59545;BME280;45368;55.002;-1.592;2023-05-09T09:51:02;100130.87;;;15.47;54.44
59545;BME280;45368;55.002;-1.592;2023-05-09T09:53:29;100134.32;;;15.05;56.03
59545;BME280;45368;55.002;-1.592;2023-05-09T09:56:05;100131.85;;;14.97;54.84
59545;BME280;45368;55.002;-1.592;2023-05-09T09:58:32;100125.96;;;15.53;54.76
59545;BME280;45368;55.002;-1.592;2023-05-09T10:02:51;100121.41;;;16.15;53.13
59545;BME280;45368;55.002;-1.592;2023-05-09T10:05:20;100124.65;;;16.12;51.20
59545;BME280;45368;55.002;-1.592;2023-05-09T10:07:54;100125.55;;;16.25;51.54
59545;BME280;45368;55.002;-1.592;2023-05-09T10:10:23;100131.39;;;15.59;53.83
59545;BME280;45368;55.002;-1.592;2023-05-09T10:12:55;100120.64;;;15.60;52.02
59545;BME280;45368;55.002;-1.592;2023-05-09T10:15:23;100115.34;;;16.62;51.99
59545;BME280;45368;55.002;-1.592;2023-05-09T10:17:53;100118.26;;;16.19;50.52
59545;BME280;45368;55.002;-1.592;2023-05-09T10:20:22;100119.85;;;15.52;52.59
59545;BME280;45368;55.002;-1.592;2023-05-09T10:22:53;100112.37;;;16.51;51.64
59545;BME280;45368;55.002;-1.592;2023-05-09T10:25:24;100111.61;;;16.91;51.03
59545;BME280;45368;55.002;-1.592;2023-05-09T10:27:55;100109.84;;;16.67;50.31
59545;BME280;45368;55.002;-1.592;2023-05-09T10:30:29;100110.43;;;16.70;51.10
59545;BME280;45368;55.002;-1.592;2023-05-09T10:33:01;100106.04;;;17.24;53.14
59545;BME280;45368;55.002;-1.592;2023-05-09T10:35:35;100109.67;;;16.91;51.83
59545;BME280;45368;55.002;-1.592;2023-05-09T10:38:02;100108.64;;;16.59;54.10
59545;BME280;45368;55.002;-1.592;2023-05-09T10:40:30;100106.19;;;16.20;49.76
59545;BME280;45368;55.002;-1.592;2023-05-09T10:42:58;100110.86;;;16.59;50.96
59545;BME280;45368;55.002;-1.592;2023-05-09T10:45:25;100108.60;;;16.64;50.93
59545;BME280;45368;55.002;-1.592;2023-05-09T10:47:53;100108.34;;;16.90;49.77
59545;BME280;45368;55.002;-1.592;2023-05-09T10:50:20;100107.67;;;16.46;51.46
59545;BME280;45368;55.002;-1.592;2023-05-09T10:53:20;100104.37;;;16.91;48.89
59545;BME280;45368;55.002;-1.592;2023-05-09T10:55:49;100112.62;;;16.03;52.70
59545;BME280;45368;55.002;-1.592;2023-05-09T10:58:20;100114.42;;;15.79;52.66
59545;BME280;45368;55.002;-1.592;2023-05-09T11:00:48;100114.99;;;15.74;52.22
59545;BME280;45368;55.002;-1.592;2023-05-09T11:03:16;100107.14;;;16.33;50.15
59545;BME280;45368;55.002;-1.592;2023-05-09T11:05:43;100106.53;;;16.88;49.59
59545;BME280;45368;55.002;-1.592;2023-05-09T11:08:20;100104.96;;;16.04;49.46
59545;BME280;45368;55.002;-1.592;2023-05-09T11:10:48;100098.52;;;16.92;48.72
59545;BME280;45368;55.002;-1.592;2023-05-09T11:13:20;100087.32;;;17.24;49.01
59545;BME280;45368;55.002;-1.592;2023-05-09T11:16:22;100082.40;;;18.12;46.60
59545;BME280;45368;55.002;-1.592;2023-05-09T11:18:52;100073.21;;;21.53;41.76
59545;BME280;45368;55.002;-1.592;2023-05-09T11:21:20;100067.85;;;23.62;37.21
59545;BME280;45368;55.002;-1.592;2023-05-09T11:23:48;100058.06;;;25.21;35.69
59545;BME280;45368;55.002;-1.592;2023-05-09T11:26:21;100061.23;;;24.39;33.82
59545;BME280;45368;55.002;-1.592;2023-05-09T11:28:52;100049.13;;;25.49;31.30
59545;BME280;45368;55.002;-1.592;2023-05-09T11:31:20;100042.85;;;26.23;30.60
59545;BME280;45368;55.002;-1.592;2023-05-09T11:33:49;100043.34;;;24.92;30.77
59545;BME280;45368;55.002;-1.592;2023-05-09T11:36:18;100033.55;;;27.03;28.46
59545;BME280;45368;55.002;-1.592;2023-05-09T11:38:46;100024.65;;;28.87;27.57
59545;BME280;45368;55.002;-1.592;2023-05-09T11:41:14;100035.61;;;24.88;29.72
59545;BME280;45368;55.002;-1.592;2023-05-09T11:43:42;100031.44;;;24.18;32.50
59545;BME280;45368;55.002;-1.592;2023-05-09T11:46:10;100035.93;;;22.48;34.46
59545;BME280;45368;55.002;-1.592;2023-05-09T11:48:38;100038.64;;;20.43;37.17
59545;BME280;45368;55.002;-1.592;2023-05-09T11:51:05;100038.07;;;19.90;39.27
59545;BME280;45368;55.002;-1.592;2023-05-09T11:53:33;100034.97;;;19.90;42.29
59545;BME280;45368;55.002;-1.592;2023-05-09T11:56:02;100036.15;;;20.34;39.52
59545;BME280;45368;55.002;-1.592;2023-05-09T11:58:29;100039.90;;;19.57;38.73
59545;BME280;45368;55.002;-1.592;2023-05-09T12:00:57;100038.30;;;19.06;39.81
59545;BME280;45368;55.002;-1.592;2023-05-09T12:03:25;100047.02;;;18.14;43.08
59545;BME280;45368;55.002;-1.592;2023-05-09T12:05:53;100043.50;;;16.91;46.02
59545;BME280;45368;55.002;-1.592;2023-05-09T12:08:21;100044.82;;;17.49;45.09
59545;BME280;45368;55.002;-1.592;2023-05-09T12:10:50;100040.39;;;17.27;43.66
59545;BME280;45368;55.002;-1.592;2023-05-09T12:13:17;100042.46;;;16.69;44.14
59545;BME280;45368;55.002;-1.592;2023-05-09T12:15:45;100041.21;;;17.12;45.84
59545;BME280;45368;55.002;-1.592;2023-05-09T12:18:13;100035.86;;;17.29;44.46
59545;BME280;45368;55.002;-1.592;2023-05-09T12:20:42;100039.13;;;18.34;43.14
59545;BME280;45368;55.002;-1.592;2023-05-09T12:23:10;100043.83;;;17.97;44.45
59545;BME280;45368;55.002;-1.592;2023-05-09T12:25:37;100036.80;;;18.49;43.25
59545;BME280;45368;55.002;-1.592;2023-05-09T12:28:05;100038.42;;;16.39;42.63
59545;BME280;45368;55.002;-1.592;2023-05-09T12:30:32;100034.79;;;17.34;41.17
59545;BME280;45368;55.002;-1.592;2023-05-09T12:33:00;100033.62;;;17.49;42.91
59545;BME280;45368;55.002;-1.592;2023-05-09T12:35:27;100037.19;;;17.80;41.64
59545;BME280;45368;55.002;-1.592;2023-05-09T12:37:57;100031.43;;;18.45;40.18
59545;BME280;45368;55.002;-1.592;2023-05-09T12:40:24;100036.16;;;18.86;39.24
59545;BME280;45368;55.002;-1.592;2023-05-09T12:42:52;100036.35;;;17.38;40.48
59545;BME280;45368;55.002;-1.592;2023-05-09T12:45:20;100036.93;;;17.31;42.88
59545;BME280;45368;55.002;-1.592;2023-05-09T12:47:50;100031.41;;;17.81;42.79